Time;durP1;ratioP1;P1;durP2;ratioP2;P2;SDS_P1;SDS_P2;PMS_P1;PMS_P2;Temp;Humidity;BMP_temperature;BMP_pressure;BME280_temperature;BME280_humidity;BME280_pressure;Samples;Min_cycle;Max_cycle;Signal;HPM_P1;HPM_P2
2022/01/26 00:07:44;;;;;;;174.77;68.30;;;;;;;-5.62;100.00;100211.30;1742134;82;21066;-70
2022/01/26 00:10:10;;;;;;;183.73;69.97;;;;;;;-5.63;100.00;100206.58;1741997;82;21110;-71
2022/01/26 00:12:37;;;;;;;157.70;63.50;;;;;;;-5.61;100.00;100207.89;1742311;82;21032;-72
2022/01/26 00:15:04;;;;;;;167.33;63.10;;;;;;;-5.58;100.00;100207.58;1741709;82;21205;-72
2022/01/26 00:17:31;;;;;;;146.87;61.03;;;;;;;-5.53;100.00;100202.58;1742087;82;21020;-70
2022/01/26 00:20:11;;;;;;;148.80;63.23;;;;;;;-5.50;100.00;100203.94;1741926;82;21040;-72
2022/01/26 00:27:52;;;;;;;248.53;85.50;;;;;;;-5.54;100.00;100198.29;1742112;82;21792;-72
2022/01/26 00:41:03;;;;;;;160.00;61.53;;;;;;;-5.51;100.00;100188.10;1741637;82;21131;-72
2022/01/26 00:43:26;;;;;;;137.47;55.70;;;;;;;-5.51;100.00;100188.10;1741794;82;21598;-72
2022/01/26 00:45:56;;;;;;;157.33;62.00;;;;;;;-5.47;100.00;100184.80;1738651;82;21050;-71
2022/01/26 00:48:20;;;;;;;286.53;98.37;;;;;;;-5.44;100.00;100183.59;1730752;82;21035;-72
2022/01/26 00:50:51;;;;;;;328.87;108.77;;;;;;;-5.48;100.00;100175.34;1726014;82;21049;-72
2022/01/26 00:53:17;;;;;;;271.80;93.40;;;;;;;-5.44;100.00;100181.03;1712667;83;21118;-72
2022/01/26 00:55:44;;;;;;;261.90;90.40;;;;;;;-5.44;100.00;100173.75;1712130;83;21064;-73
2022/01/26 00:58:10;;;;;;;382.30;133.63;;;;;;;-5.46;100.00;100177.55;1712350;83;21427;-73
2022/01/26 01:00:38;;;;;;;374.03;127.93;;;;;;;-5.46;100.00;100173.70;1719097;82;21557;-72
2022/01/26 01:03:05;;;;;;;364.00;124.33;;;;;;;-5.42;100.00;100174.25;1741588;82;21105;-71
2022/01/26 01:05:38;;;;;;;190.53;76.50;;;;;;;-5.42;100.00;100171.69;1741760;82;21144;-71
2022/01/26 01:08:11;;;;;;;194.87;74.90;;;;;;;-5.41;100.00;100173.41;1741334;82;21124;-73
2022/01/26 01:10:31;;;;;;;197.33;72.33;;;;;;;-5.41;100.00;100168.70;1739508;82;21072;-73
2022/01/26 01:12:59;;;;;;;183.60;69.20;;;;;;;-5.41;100.00;100163.14;1726926;82;21147;-70
2022/01/26 01:15:28;;;;;;;193.00;76.00;;;;;;;-5.39;100.00;100148.66;1706255;84;21065;-70
2022/01/26 01:18:05;;;;;;;157.47;64.00;;;;;;;-5.37;100.00;100145.72;1706630;84;21088;-71
2022/01/26 01:23:11;;;;;;;167.67;67.40;;;;;;;-5.37;100.00;100144.44;1717693;83;21060;-72
2022/01/26 01:30:45;;;;;;;243.50;83.63;;;;;;;-5.32;100.00;100129.16;1710435;82;21265;-74
2022/01/26 01:35:36;;;;;;;225.57;80.80;;;;;;;-5.34;100.00;100126.55;1710921;82;21104;-72
2022/01/26 01:38:10;;;;;;;320.85;113.37;;;;;;;-5.36;100.00;100123.09;1712489;83;21029;-74
2022/01/26 01:40:39;;;;;;;222.77;79.53;;;;;;;-5.36;100.00;100125.66;1713302;83;22055;-72
2022/01/26 01:43:06;;;;;;;189.50;74.83;;;;;;;-5.36;100.00;100123.09;1719896;83;21110;-72
2022/01/26 01:45:43;;;;;;;229.43;85.87;;;;;;;-5.39;100.00;100110.16;1719942;83;21512;-71
2022/01/26 01:48:11;;;;;;;181.27;69.33;;;;;;;-5.41;100.00;100110.52;1719735;83;21022;-72
2022/01/26 01:50:41;;;;;;;197.93;73.50;;;;;;;-5.39;100.00;100104.16;1719942;83;21069;-71
2022/01/26 01:53:05;;;;;;;169.90;67.27;;;;;;;-5.38;100.00;100103.31;1719940;83;21552;-71
2022/01/26 01:55:33;;;;;;;161.40;64.20;;;;;;;-5.36;100.00;100098.70;1719882;83;21122;-72
2022/01/26 01:58:00;;;;;;;161.17;65.80;;;;;;;-5.34;100.00;100103.44;1719821;83;21088;-72
2022/01/26 02:00:27;;;;;;;237.23;84.67;;;;;;;-5.32;100.00;100103.06;1725308;82;21084;-71
2022/01/26 02:02:54;;;;;;;345.87;120.27;;;;;;;-5.28;100.00;100103.61;1749932;82;21045;-72
2022/01/26 02:05:21;;;;;;;318.23;111.50;;;;;;;-5.24;100.00;100103.72;1749894;82;21076;-71
2022/01/26 02:07:47;;;;;;;424.40;150.27;;;;;;;-5.21;100.00;100103.78;1749877;82;22559;-71
2022/01/26 02:10:14;;;;;;;526.40;194.47;;;;;;;-5.19;100.00;100096.99;1749992;82;21100;-72
2022/01/26 02:12:46;;;;;;;344.70;128.10;;;;;;;-5.17;100.00;100105.61;1749801;82;21021;-71
2022/01/26 02:15:25;;;;;;;371.20;129.30;;;;;;;-5.17;100.00;100092.77;1745537;82;21147;-71
2022/01/26 02:55:52;;;;;;;177.90;67.53;;;;;;;-4.81;100.00;100102.20;1750379;81;21552;-69
2022/01/26 03:03:42;;;;;;;131.53;53.17;;;;;;;-4.67;100.00;100108.55;1750494;81;21154;-68
2022/01/26 03:06:10;;;;;;;275.73;90.93;;;;;;;-4.61;100.00;100102.70;1748756;81;21064;-69
2022/01/26 03:08:40;;;;;;;202.47;76.13;;;;;;;-4.55;100.00;100103.72;1750280;81;21009;-69
2022/01/26 03:11:12;;;;;;;287.53;104.17;;;;;;;-4.47;100.00;100099.60;1749933;81;21080;-70
2022/01/26 03:13:59;;;;;;;428.77;149.00;;;;;;;-4.38;100.00;100095.09;1739324;81;21049;-71
2022/01/26 03:16:26;;;;;;;141.03;57.13;;;;;;;-4.31;100.00;100104.68;1729548;82;21592;-70
2022/01/26 03:21:24;;;;;;;126.57;51.70;;;;;;;-4.22;100.00;100105.31;1730759;82;21037;-69
2022/01/26 03:29:42;;;;;;;127.13;49.83;;;;;;;-4.09;100.00;100109.03;1733731;81;21060;-68
2022/01/26 03:32:38;;;;;;;132.67;53.43;;;;;;;-4.07;100.00;100110.80;1729670;82;21030;-69
2022/01/26 03:34:25;;;;;;;311.87;109.13;;;;;;;-4.03;100.00;100118.15;1730230;82;21033;-69
2022/01/26 03:36:56;;;;;;;146.62;57.03;;;;;;;-3.99;100.00;100116.10;1730861;82;21033;-71
2022/01/26 03:39:22;;;;;;;355.57;123.53;;;;;;;-3.94;100.00;100111.05;1730831;82;23251;-69
2022/01/26 03:42:04;;;;;;;201.93;75.93;;;;;;;-3.93;100.00;100118.81;1695180;83;21033;-70
2022/01/26 03:44:23;;;;;;;222.60;82.92;;;;;;;-3.91;100.00;100116.25;1718177;83;21695;-70
2022/01/26 03:46:50;;;;;;;148.50;57.20;;;;;;;-3.85;100.00;100108.67;1718343;83;21510;-70
2022/01/26 03:49:17;;;;;;;134.17;54.63;;;;;;;-3.81;100.00;100113.91;1718632;83;21092;-69
2022/01/26 03:51:44;;;;;;;128.82;49.58;;;;;;;-3.79;100.00;100108.81;1718204;83;21146;-70
2022/01/26 03:54:10;;;;;;;128.27;50.50;;;;;;;-3.76;100.00;100120.44;1718338;83;21299;-70
2022/01/26 03:56:37;;;;;;;168.80;60.73;;;;;;;-3.73;100.00;100120.49;1718405;83;21068;-72
2022/01/26 03:59:05;;;;;;;123.25;50.28;;;;;;;-3.69;100.00;100123.59;1718460;83;21124;-70
2022/01/26 04:01:33;;;;;;;122.30;49.10;;;;;;;-3.68;100.00;100125.34;1718366;83;21073;-71
2022/01/26 04:03:59;;;;;;;122.30;49.93;;;;;;;-3.67;100.00;100121.92;1718460;83;21828;-69
2022/01/26 04:06:26;;;;;;;119.85;49.23;;;;;;;-3.67;100.00;100123.20;1718368;83;21057;-71
2022/01/26 04:08:53;;;;;;;274.88;98.33;;;;;;;-3.65;100.00;100121.95;1718835;83;21045;-70
2022/01/26 04:11:33;;;;;;;162.10;61.58;;;;;;;-3.62;100.00;100118.15;1718242;83;22184;-70
2022/01/26 04:13:52;;;;;;;498.20;177.25;;;;;;;-3.63;100.00;100126.30;1714813;83;21136;-71
2022/01/26 04:16:21;;;;;;;187.85;72.78;;;;;;;-3.61;100.00;100122.05;1714230;83;21069;-70
2022/01/26 04:18:47;;;;;;;206.60;77.32;;;;;;;-3.55;100.00;100120.43;1714576;83;21022;-69
2022/01/26 04:23:55;;;;;;;490.20;177.17;;;;;;;-3.59;100.00;100120.38;1714594;83;21092;-70
2022/01/26 04:26:23;;;;;;;157.32;59.15;;;;;;;-3.56;100.00;100129.00;1714075;83;21673;-69
2022/01/26 04:28:56;;;;;;;132.47;53.02;;;;;;;-3.53;100.00;100121.33;1714043;83;21156;-70
2022/01/26 04:31:17;;;;;;;130.93;50.67;;;;;;;-3.51;100.00;100117.95;1713301;82;21182;-71
2022/01/26 04:33:43;;;;;;;138.90;50.78;;;;;;;-3.47;100.00;100121.03;1713525;83;21076;-70
2022/01/26 04:36:13;;;;;;;117.17;47.25;;;;;;;-3.45;100.00;100123.62;1713395;82;21076;-71
2022/01/26 04:38:45;;;;;;;146.05;54.67;;;;;;;-3.43;100.00;100116.41;1692650;82;21128;-64
2022/01/26 04:43:56;;;;;;;115.43;47.87;;;;;;;-3.40;100.00;100122.03;1719027;82;20998;-67
2022/01/26 04:46:20;;;;;;;243.93;86.97;;;;;;;-3.40;100.00;100118.16;1767438;80;21573;-67
2022/01/26 04:48:47;;;;;;;264.95;96.90;;;;;;;-3.39;100.00;100122.46;1690718;84;21703;-66
2022/01/26 04:51:15;;;;;;;139.90;51.70;;;;;;;-3.37;100.00;100120.78;1689029;84;21089;-66
2022/01/26 04:53:41;;;;;;;139.18;51.63;;;;;;;-3.37;100.00;100124.65;1683538;84;21128;-65
2022/01/26 04:56:08;;;;;;;379.35;129.63;;;;;;;-3.37;100.00;100123.36;1729347;82;21131;-66
2022/01/26 04:58:35;;;;;;;327.87;116.28;;;;;;;-3.39;100.00;100122.46;1728828;80;21093;-67
2022/01/26 05:01:02;;;;;;;158.93;61.40;;;;;;;-3.37;100.00;100125.94;1725899;80;21112;-68
2022/01/26 05:03:28;;;;;;;260.45;94.28;;;;;;;-3.38;100.00;100133.23;1732597;80;21524;-67
2022/01/26 05:05:56;;;;;;;326.60;116.05;;;;;;;-3.39;100.00;100132.76;1731674;82;21093;-66
2022/01/26 05:08:22;;;;;;;128.82;51.10;;;;;;;-3.36;100.00;100135.38;1742851;80;21063;-64
2022/01/26 05:10:49;;;;;;;112.65;45.43;;;;;;;-3.39;100.00;100140.48;1712820;82;21113;-65
2022/01/26 05:13:16;;;;;;;127.17;47.55;;;;;;;-3.36;100.00;100143.11;1723206;80;21065;-67
2022/01/26 05:15:43;;;;;;;121.25;45.25;;;;;;;-3.40;100.00;100146.48;1734177;80;21113;-64
2022/01/26 05:18:11;;;;;;;115.25;45.73;;;;;;;-3.39;100.00;100143.92;1710751;82;21105;-66
2022/01/26 05:20:39;;;;;;;116.85;48.83;;;;;;;-3.39;100.00;100138.77;1722055;82;21065;-65
2022/01/26 05:23:06;;;;;;;133.37;48.73;;;;;;;-3.38;100.00;100147.39;1741895;82;21481;-64
2022/01/26 05:25:34;;;;;;;105.30;43.73;;;;;;;-3.40;100.00;100152.92;1726640;82;21038;-64
2022/01/26 05:28:01;;;;;;;105.97;40.67;;;;;;;-3.45;100.00;100140.36;1724043;82;21156;-65
2022/01/26 05:30:29;;;;;;;107.17;44.00;;;;;;;-3.46;100.00;100154.08;1728894;82;21921;-65
2022/01/26 05:32:56;;;;;;;110.57;44.85;;;;;;;-3.51;100.00;100153.98;1732118;82;21613;-66
2022/01/26 05:35:22;;;;;;;107.83;40.33;;;;;;;-3.52;100.00;100157.80;1673813;85;21152;-66
2022/01/26 05:37:49;;;;;;;107.47;42.05;;;;;;;-3.52;100.00;100156.52;1730225;82;21041;-65
2022/01/26 05:40:16;;;;;;;113.65;41.98;;;;;;;-3.53;100.00;100159.95;1735542;80;21128;-64
2022/01/26 05:42:43;;;;;;;97.88;39.30;;;;;;;-3.56;100.00;100157.33;1740111;81;21162;-63
2022/01/26 05:45:21;;;;;;;104.12;42.10;;;;;;;-3.55;100.00;100162.91;1750690;80;21018;-65
2022/01/26 05:47:42;;;;;;;97.40;37.48;;;;;;;-3.56;100.00;100165.91;1744071;82;21072;-64
2022/01/26 05:50:08;;;;;;;95.53;35.58;;;;;;;-3.56;100.00;100175.34;1723975;82;21529;-66
2022/01/26 05:52:35;;;;;;;105.03;42.23;;;;;;;-3.60;100.00;100171.39;1747776;82;21100;-63
2022/01/26 05:55:02;;;;;;;97.30;36.93;;;;;;;-3.61;100.00;100172.25;1727740;82;21502;-65
2022/01/26 05:57:30;;;;;;;111.53;43.20;;;;;;;-3.63;100.00;100176.48;1718464;83;21680;-63
2022/01/26 05:59:57;;;;;;;103.77;40.07;;;;;;;-3.64;100.00;100173.45;1719408;83;21124;-64
2022/01/26 06:02:24;;;;;;;102.55;39.67;;;;;;;-3.63;100.00;100175.20;1716193;82;20990;-64
2022/01/26 06:04:51;;;;;;;103.30;38.25;;;;;;;-3.63;100.00;100175.20;1713844;83;21061;-64
2022/01/26 06:07:17;;;;;;;103.95;39.63;;;;;;;-3.62;100.00;100182.50;1713680;83;21096;-63
2022/01/26 06:09:43;;;;;;;106.83;42.95;;;;;;;-3.59;100.00;100187.31;1713970;83;20998;-64
2022/01/26 06:12:10;;;;;;;104.07;40.00;;;;;;;-3.57;100.00;100185.17;1724086;81;21150;-64
2022/01/26 06:14:38;;;;;;;103.27;40.55;;;;;;;-3.56;100.00;100183.06;1726632;82;21139;-64
2022/01/26 06:17:07;;;;;;;103.75;38.38;;;;;;;-3.54;100.00;100186.52;1735955;82;21060;-64
2022/01/26 06:19:34;;;;;;;98.20;38.98;;;;;;;-3.53;100.00;100185.69;1737436;80;21154;-64
2022/01/26 06:22:00;;;;;;;149.53;54.53;;;;;;;-3.52;100.00;100189.98;1739997;82;21612;-65
2022/01/26 06:24:28;;;;;;;306.50;107.72;;;;;;;-3.47;100.00;100196.13;1732828;82;21052;-64
2022/01/26 06:26:55;;;;;;;193.80;68.70;;;;;;;-3.44;100.00;100192.31;1735328;82;21544;-64
2022/01/26 06:29:22;;;;;;;299.98;103.47;;;;;;;-3.44;100.00;100198.75;1731494;82;21389;-63
2022/01/26 06:31:48;;;;;;;145.53;54.47;;;;;;;-3.39;100.00;100191.98;1736520;81;21130;-67
2022/01/26 06:34:15;;;;;;;272.95;94.03;;;;;;;-3.36;100.00;100192.04;1735911;81;21060;-63
2022/01/26 06:36:43;;;;;;;136.25;51.02;;;;;;;-3.35;100.00;100198.08;1727384;80;21057;-64
2022/01/26 06:39:11;;;;;;;189.87;68.45;;;;;;;-3.34;100.00;100192.94;1740203;80;21057;-64
2022/01/26 06:41:48;;;;;;;138.68;53.87;;;;;;;-3.31;100.00;100198.17;1731245;82;21984;-63
2022/01/26 06:44:19;;;;;;;113.55;46.23;;;;;;;-3.30;100.00;100206.34;1722521;82;21231;-64
2022/01/26 06:46:51;;;;;;;97.53;39.00;;;;;;;-3.28;100.00;100204.66;1723878;82;21081;-64
2022/01/26 06:51:35;;;;;;;98.52;39.53;;;;;;;-3.29;100.00;100215.82;1731176;82;21549;-63
2022/01/26 06:54:02;;;;;;;98.17;37.70;;;;;;;-3.29;100.00;100223.94;1729384;82;21064;-63
2022/01/26 06:56:29;;;;;;;101.82;38.10;;;;;;;-3.32;100.00;100227.32;1712077;83;21161;-63
2022/01/26 06:58:56;;;;;;;94.55;35.98;;;;;;;-3.31;100.00;100226.90;1712064;83;21514;-64
2022/01/26 07:01:23;;;;;;;105.92;38.02;;;;;;;-3.34;100.00;100232.86;1731155;82;21132;-64
2022/01/26 07:03:49;;;;;;;98.12;38.78;;;;;;;-3.32;100.00;100232.47;1728435;82;21795;-66
2022/01/26 07:06:16;;;;;;;92.95;35.23;;;;;;;-3.29;100.00;100229.98;1731917;82;21144;-65
2022/01/26 07:08:44;;;;;;;103.53;41.08;;;;;;;-3.26;100.00;100237.77;1735757;82;21894;-65
2022/01/26 07:11:10;;;;;;;134.03;48.48;;;;;;;-3.24;100.00;100239.95;1724406;80;21401;-65
2022/01/26 07:13:39;;;;;;;93.17;36.20;;;;;;;-3.22;100.00;100234.42;1730663;82;21053;-65
2022/01/26 07:21:35;;;;;;;94.47;36.53;;;;;;;-3.29;100.00;100241.97;1742056;82;21170;-64
2022/01/26 07:24:03;;;;;;;98.52;37.00;;;;;;;-3.27;100.00;100241.16;1718314;82;21557;-65
2022/01/26 07:26:30;;;;;;;100.47;38.08;;;;;;;-3.26;100.00;100251.92;1712394;83;21085;-63
2022/01/26 07:28:59;;;;;;;93.80;37.05;;;;;;;-3.24;100.00;100256.70;1731646;82;21057;-65
2022/01/26 07:31:26;;;;;;;96.37;36.98;;;;;;;-3.24;100.00;100257.98;1734114;82;21070;-65
2022/01/26 07:33:57;;;;;;;94.10;36.38;;;;;;;-3.25;100.00;100255.37;1720214;80;21533;-65
2022/01/26 07:36:24;;;;;;;91.12;35.73;;;;;;;-3.26;100.00;100260.94;1722995;80;22326;-64
2022/01/26 07:38:54;;;;;;;88.03;35.40;;;;;;;-3.23;100.00;100264.00;1740208;80;21097;-63
2022/01/26 07:41:19;;;;;;;103.95;38.15;;;;;;;-3.22;100.00;100266.62;1739559;80;21065;-64
2022/01/26 07:43:46;;;;;;;102.62;40.38;;;;;;;-3.19;100.00;100264.09;1665817;84;21551;-64
2022/01/26 07:46:14;;;;;;;87.75;35.73;;;;;;;-3.14;100.00;100273.63;1721118;82;21159;-65
2022/01/26 07:48:40;;;;;;;77.85;32.03;;;;;;;-3.08;100.00;100267.30;1725930;82;21644;-65
2022/01/26 07:51:07;;;;;;;95.77;35.33;;;;;;;-3.04;100.00;100280.27;1730334;82;21057;-64
2022/01/26 07:53:33;;;;;;;83.35;33.83;;;;;;;-3.04;100.00;100275.55;1725923;80;21093;-64
2022/01/26 07:56:00;;;;;;;92.92;34.60;;;;;;;-3.02;100.00;100280.31;1743659;80;21049;-65
2022/01/26 07:58:27;;;;;;;73.22;31.20;;;;;;;-3.00;100.00;100279.50;1741751;82;22128;-65
2022/01/26 08:00:53;;;;;;;84.67;32.55;;;;;;;-2.98;100.00;100282.12;1741894;82;21510;-64
2022/01/26 08:03:20;;;;;;;70.28;28.75;;;;;;;-2.96;100.00;100286.89;1741808;82;21014;-65
2022/01/26 08:05:49;;;;;;;85.60;32.40;;;;;;;-2.92;100.00;100286.12;1738958;80;21580;-64
2022/01/26 08:08:15;;;;;;;75.45;29.20;;;;;;;-2.86;100.00;100284.93;1718237;82;21580;-65
2022/01/26 08:10:42;;;;;;;73.95;32.00;;;;;;;-2.81;100.00;100281.16;1734755;82;21168;-66
2022/01/26 08:13:08;;;;;;;83.20;32.25;;;;;;;-2.79;100.00;100285.49;1723539;82;21656;-65
2022/01/26 08:15:35;;;;;;;71.05;28.27;;;;;;;-2.73;100.00;100290.34;1706488;84;21077;-63
2022/01/26 08:18:05;;;;;;;82.72;30.30;;;;;;;-2.71;100.00;100292.11;1726008;82;21122;-64
2022/01/26 08:20:33;;;;;;;80.85;32.13;;;;;;;-2.65;100.00;100296.50;1692069;83;21053;-65
2022/01/26 08:23:00;;;;;;;72.08;28.87;;;;;;;-2.62;100.00;100296.58;1712719;82;21893;-65
2022/01/26 08:25:28;;;;;;;67.03;27.65;;;;;;;-2.54;100.00;100295.00;1732906;80;21053;-64
2022/01/26 08:28:02;;;;;;;75.50;29.18;;;;;;;-2.48;100.00;100296.84;1717666;82;21592;-65
2022/01/26 08:30:26;;;;;;;71.53;28.80;;;;;;;-2.43;100.00;100299.07;1728595;80;21025;-65
2022/01/26 08:32:53;;;;;;;64.85;26.77;;;;;;;-2.38;100.00;100304.75;1736898;82;21599;-65
2022/01/26 08:35:19;;;;;;;64.90;27.70;;;;;;;-2.33;100.00;100306.98;1723657;82;21784;-65
2022/01/26 08:37:46;;;;;;;66.42;26.62;;;;;;;-2.25;100.00;100298.54;1731485;82;21049;-65
2022/01/26 08:40:12;;;;;;;66.02;27.77;;;;;;;-2.17;100.00;100299.09;1669349;85;21647;-65
2022/01/26 08:42:42;;;;;;;66.60;28.65;;;;;;;-2.11;100.00;100306.09;1674761;85;21533;-67
2022/01/26 08:45:09;;;;;;;62.48;26.00;;;;;;;-2.08;100.00;100307.42;1739098;81;21053;-65
2022/01/26 08:47:36;;;;;;;64.45;25.25;;;;;;;-2.00;100.00;100301.09;1735276;82;21141;-65
2022/01/26 08:50:05;;;;;;;62.20;25.77;;;;;;;-1.97;100.00;100303.31;1734817;81;21564;-66
2022/01/26 08:52:31;;;;;;;68.12;29.67;;;;;;;-1.92;100.00;100303.39;1719866;83;21552;-65
2022/01/26 08:54:58;;;;;;;70.72;27.87;;;;;;;-1.87;100.00;100306.91;1718824;83;21040;-64
2022/01/26 08:57:24;;;;;;;67.08;28.27;;;;;;;-1.79;100.00;100300.59;1719866;83;21083;-66
2022/01/26 08:59:51;;;;;;;64.90;26.65;;;;;;;-1.72;100.00;100293.39;1720525;82;21988;-65
2022/01/26 09:02:18;;;;;;;61.85;26.00;;;;;;;-1.58;100.00;100303.49;1732746;82;21064;-65
2022/01/26 09:04:44;;;;;;;65.83;26.17;;;;;;;-1.43;100.00;100300.69;1749292;82;21052;-64
2022/01/26 09:07:14;;;;;;;61.40;25.82;;;;;;;-1.31;100.00;100291.84;1749498;82;21107;-63
2022/01/26 09:09:44;;;;;;;57.98;25.25;;;;;;;-1.18;100.00;100290.27;1748630;82;21052;-65
2022/01/26 09:12:15;;;;;;;60.15;26.65;;;;;;;-1.10;100.00;100294.69;1746499;82;21112;-65
2022/01/26 09:14:42;;;;;;;165.05;64.03;;;;;;;-0.96;100.00;100297.88;1716668;82;21085;-65
2022/01/26 09:17:10;;;;;;;64.35;27.60;;;;;;;-0.82;100.00;100298.91;1726587;80;21080;-64
2022/01/26 09:19:37;;;;;;;87.42;35.88;;;;;;;-0.70;100.00;100293.88;1737255;80;21714;-65
2022/01/26 09:22:07;;;;;;;83.78;34.85;;;;;;;-0.51;100.00;100287.60;1745923;80;21147;-65
2022/01/26 09:24:36;;;;;;;66.57;27.22;;;;;;;-0.43;100.00;100295.03;1730993;80;21106;-65
2022/01/26 09:27:03;;;;;;;61.53;23.52;;;;;;;-0.40;100.00;100283.41;1723138;82;21143;-65
2022/01/26 09:29:31;;;;;;;58.68;25.60;;;;;;;-0.39;100.00;100291.63;1744189;82;21103;-64
2022/01/26 09:31:58;;;;;;;73.25;28.10;;;;;;;-0.32;100.00;100286.06;1735420;82;21037;-65
2022/01/26 09:34:28;;;;;;;55.60;21.73;;;;;;;-0.22;100.00;100286.61;1746330;82;21076;-65
2022/01/26 09:36:54;;;;;;;55.60;23.18;;;;;;;-0.17;100.00;100284.92;1749910;82;21122;-64
2022/01/26 09:39:22;;;;;;;47.13;21.95;;;;;;;-0.15;100.00;100297.89;1749646;82;21106;-65
2022/01/26 09:41:50;;;;;;;52.85;21.37;;;;;;;-0.15;100.00;100288.83;1749916;82;21073;-64
2022/01/26 09:44:18;;;;;;;53.68;21.57;;;;;;;-0.16;100.00;100287.97;1749941;81;21032;-65
2022/01/26 09:46:47;;;;;;;44.88;20.17;;;;;;;-0.11;99.89;100299.23;1749756;82;21113;-65
2022/01/26 09:49:17;;;;;;;57.45;21.85;;;;;;;-0.02;100.00;100288.09;1749841;82;21568;-65
2022/01/26 09:51:49;;;;;;;46.95;20.50;;;;;;;0.06;98.82;100293.32;1749288;82;26707;-64
2022/01/26 09:54:17;;;;;;;45.05;19.70;;;;;;;0.01;98.37;100289.40;1726733;82;21616;-65
2022/01/26 09:56:47;;;;;;;40.63;18.15;;;;;;;-0.05;97.30;100295.80;1719810;83;21607;-65
2022/01/26 09:59:16;;;;;;;129.05;46.37;;;;;;;-0.14;97.51;100295.73;1730013;82;21040;-64
2022/01/26 10:01:50;;;;;;;74.20;29.67;;;;;;;-0.15;98.50;100305.22;1730005;82;21099;-65
2022/01/26 10:04:32;;;;;;;84.77;34.48;;;;;;;-0.18;98.22;100303.02;1736124;82;21032;-65
2022/01/26 10:07:26;;;;;;;60.58;23.47;;;;;;;-0.20;98.30;100304.75;1744535;82;21502;-65
2022/01/26 10:09:56;;;;;;;52.78;21.62;;;;;;;-0.26;98.19;100305.11;1737782;80;21096;-66
2022/01/26 10:17:45;;;;;;;62.25;24.15;;;;;;;-0.19;99.67;100300.00;1745546;82;21065;-65
2022/01/26 10:20:15;;;;;;;47.93;20.50;;;;;;;-0.23;99.49;100296.10;1746150;82;21084;-64
2022/01/26 10:22:41;;;;;;;44.63;19.85;;;;;;;-0.23;99.44;100293.91;1742052;82;21088;-65
2022/01/26 10:25:20;;;;;;;110.28;43.20;;;;;;;-0.24;99.33;100295.64;1742882;80;21140;-64
2022/01/26 10:27:49;;;;;;;110.25;41.90;;;;;;;-0.20;100.00;100291.81;1739238;80;22128;-64
2022/01/26 10:30:19;;;;;;;57.30;24.60;;;;;;;-0.10;100.00;100291.02;1749135;82;21631;-65
2022/01/26 10:32:46;;;;;;;57.67;24.23;;;;;;;-0.11;99.07;100291.89;1734494;81;21044;-64
2022/01/26 10:35:15;;;;;;;47.53;21.00;;;;;;;-0.07;99.47;100287.16;1739909;82;21069;-64
2022/01/26 10:37:53;;;;;;;58.40;23.27;;;;;;;0.01;100.00;100290.70;1738099;82;21506;-64
2022/01/26 10:40:24;;;;;;;53.65;22.82;;;;;;;0.08;100.00;100284.70;1747788;81;21519;-66
2022/01/26 10:43:08;;;;;;;48.08;19.55;;;;;;;0.14;100.00;100287.36;1743979;80;21033;-64
2022/01/26 10:46:04;;;;;;;44.88;20.88;;;;;;;0.08;98.17;100282.55;1738841;80;21097;-65
2022/01/26 10:48:40;;;;;;;167.07;64.53;;;;;;;-0.01;99.07;100282.91;1734901;80;21017;-64
2022/01/26 10:53:48;;;;;;;51.08;22.67;;;;;;;-0.09;99.48;100289.75;1725840;82;23403;-64
2022/01/26 10:58:16;;;;;;;44.90;19.27;;;;;;;-0.06;100.00;100284.59;1785012;79;22516;-66
2022/01/26 11:00:41;;;;;;;48.70;20.85;;;;;;;-0.14;100.00;100285.38;1724323;81;21053;-65
2022/01/26 11:03:08;;;;;;;53.78;22.25;;;;;;;-0.27;99.27;100295.63;1726203;82;21198;-65
2022/01/26 11:05:35;;;;;;;39.23;16.23;;;;;;;-0.28;99.32;100293.87;1742193;82;20969;-64
2022/01/26 11:08:02;;;;;;;49.85;20.97;;;;;;;-0.35;96.76;100293.38;1718313;82;21081;-64
2022/01/26 11:10:37;;;;;;;45.10;19.07;;;;;;;-0.37;98.69;100287.74;1727307;82;21124;-65
2022/01/26 11:13:06;;;;;;;40.05;15.95;;;;;;;-0.35;98.49;100290.78;1717152;82;21109;-64
2022/01/26 11:15:33;;;;;;;40.30;18.37;;;;;;;-0.35;98.03;100292.08;1717329;83;21100;-64
2022/01/26 11:18:08;;;;;;;32.60;14.33;;;;;;;-0.37;97.38;100284.72;1716792;82;21008;-65
2022/01/26 11:20:50;;;;;;;48.60;20.05;;;;;;;-0.33;97.57;100289.52;1717534;82;21584;-64
2022/01/26 11:23:39;;;;;;;83.65;31.33;;;;;;;-0.36;97.08;100289.06;1718306;82;21029;-65
2022/01/26 11:26:05;;;;;;;99.87;40.33;;;;;;;-0.34;96.99;100295.56;1730257;82;21052;-65
2022/01/26 11:28:32;;;;;;;42.13;19.10;;;;;;;-0.33;97.19;100298.14;1720210;80;21202;-65
2022/01/26 11:31:04;;;;;;;50.75;21.65;;;;;;;-0.32;96.95;100292.13;1728277;82;21093;-65
2022/01/26 11:33:30;;;;;;;;;;;;;;;-0.33;96.55;100294.26;1735713;82;21050;-65
2022/01/26 11:35:58;;;;;;;47.30;19.42;;;;;;;-0.33;94.56;100294.69;1675174;82;20197;-64
2022/01/26 11:38:50;;;;;;;53.90;21.12;;;;;;;-0.38;94.46;100302.41;1742223;82;21056;-65
2022/01/26 11:46:36;;;;;;;109.30;38.70;;;;;;;-0.43;95.33;100296.33;1743802;82;21073;-65
2022/01/26 11:49:10;;;;;;;69.82;26.17;;;;;;;-0.42;93.45;100286.41;1725618;82;21045;-65
2022/01/26 11:51:51;;;;;;;176.32;62.20;;;;;;;-0.41;92.79;100294.63;1721998;82;21078;-65
2022/01/26 11:54:21;;;;;;;87.40;32.55;;;;;;;-0.45;92.58;100286.38;1722316;82;21062;-65
2022/01/26 11:57:05;;;;;;;20.32;9.58;;;;;;;-0.43;93.55;100283.39;1733668;82;21068;-63
2022/01/26 11:59:42;;;;;;;24.35;9.88;;;;;;;-0.43;91.17;100282.09;1717017;82;21005;-64
2022/01/26 12:02:19;;;;;;;22.93;9.68;;;;;;;-0.44;91.81;100289.39;1725229;82;21073;-65
2022/01/26 12:04:37;;;;;;;22.15;8.83;;;;;;;-0.42;90.92;100285.11;1713110;82;20979;-65
2022/01/26 12:07:23;;;;;;;17.27;7.80;;;;;;;-0.40;89.07;100293.76;1721230;82;21214;-65
2022/01/26 12:09:40;;;;;;;18.42;8.30;;;;;;;-0.44;89.32;100293.28;1714852;82;21724;-66
2022/01/26 12:12:10;;;;;;;23.40;9.73;;;;;;;-0.46;87.39;100297.56;1712687;82;21050;-65
2022/01/26 12:14:37;;;;;;;33.88;13.58;;;;;;;-0.49;88.84;100304.02;1687907;82;21090;-64
2022/01/26 12:17:09;;;;;;;55.78;20.00;;;;;;;-0.51;87.16;100312.18;1724291;82;21053;-66
2022/01/26 12:19:48;;;;;;;105.65;38.28;;;;;;;-0.58;86.14;100309.09;1726518;82;21099;-65
2022/01/26 12:34:03;;;;;;;15.08;5.83;;;;;;;-0.88;81.42;100320.38;1719049;82;21131;-65
2022/01/26 12:36:25;;;;;;;33.73;12.78;;;;;;;-0.90;82.44;100314.74;1711762;82;21755;-65
2022/01/26 12:38:49;;;;;;;26.55;9.65;;;;;;;-0.90;82.89;100324.69;1712215;82;21950;-64
2022/01/26 12:43:59;;;;;;;8.65;4.45;;;;;;;-0.81;83.13;100321.75;1713559;82;21041;-64
2022/01/26 12:46:29;;;;;;;23.10;7.47;;;;;;;-0.80;80.88;100326.09;1722792;82;21363;-64
2022/01/26 12:49:16;;;;;;;17.42;7.33;;;;;;;-0.80;81.97;100324.37;1718412;82;21226;-66
2022/01/26 12:51:52;;;;;;;135.63;44.85;;;;;;;-0.81;81.55;100335.54;1722361;82;21116;-65
2022/01/26 12:54:20;;;;;;;43.52;16.20;;;;;;;-0.83;81.87;100333.80;1719624;82;22092;-65
2022/01/26 12:56:47;;;;;;;56.42;20.50;;;;;;;-0.84;83.52;100332.93;1711141;82;21125;-65
2022/01/26 12:59:17;;;;;;;33.88;12.53;;;;;;;-0.90;82.77;100335.43;1717851;82;21123;-65
2022/01/26 13:01:52;;;;;;;33.40;12.47;;;;;;;-0.93;83.71;100332.81;1719685;82;21101;-65
2022/01/26 13:04:19;;;;;;;77.35;28.98;;;;;;;-0.94;83.70;100336.27;1703667;82;21073;-65
2022/01/26 13:06:53;;;;;;;28.62;11.08;;;;;;;-0.98;85.73;100330.17;1701799;82;21558;-65
2022/01/26 13:09:29;;;;;;;16.07;6.33;;;;;;;-0.99;85.03;100332.72;1721958;82;21063;-65
2022/01/26 13:11:58;;;;;;;23.02;9.50;;;;;;;-0.99;86.51;100333.62;1714318;82;21093;-64
2022/01/26 13:14:56;;;;;;;16.32;7.28;;;;;;;-0.97;84.36;100334.91;1711994;82;21037;-65